Terminal Aerodrome Forecast
Issued by NWS

Home | Current Version | Previous Version | Text Only | Print | Product List | Glossary On
Versions: 1 2 3 4 5 6 7 8 9 10 11 12 13 14 15 16 17
000
FTUS43 KIND 251100
TAFHUF
TAF
KHUF 251125Z 2512/2612 21003KT P6SM SCT050
     FM251500 27006KT P6SM SCT030 BKN250
     FM251800 27010KT P6SM SCT100
     FM252300 30006KT P6SM SCT100
     FM260400 32004KT P6SM SCT250=

USA.gov is the U.S. government's official web portal to all federal, state and local government web resources and services.